sensor_id;sensor_type;location;lat;lon;timestamp;temperature;humidity
12374;DHT22;6251;51.762;8.660;2023-06-05T01:01:30;12.40;99.90
12374;DHT22;6251;51.762;8.660;2023-06-05T01:11:44;12.10;99.90
12374;DHT22;6251;51.762;8.660;2023-06-05T02:53:32;10.60;99.90
12374;DHT22;6251;51.762;8.660;2023-06-05T04:04:35;9.90;99.90
12374;DHT22;6251;51.762;8.660;2023-06-05T04:14:36;9.90;99.90
12374;DHT22;6251;51.762;8.660;2023-06-05T04:24:37;10.00;99.90
12374;DHT22;6251;51.762;8.660;2023-06-05T04:34:39;10.00;99.90
12374;DHT22;6251;51.762;8.660;2023-06-05T04:44:40;10.10;99.90
12374;DHT22;6251;51.762;8.660;2023-06-05T04:54:41;10.30;99.90
12374;DHT22;6251;51.762;8.660;2023-06-05T05:04:41;10.50;99.90
12374;DHT22;6251;51.762;8.660;2023-06-05T05:14:42;10.60;99.90
12374;DHT22;6251;51.762;8.660;2023-06-05T05:24:45;10.90;99.90
12374;DHT22;6251;51.762;8.660;2023-06-05T05:34:45;11.00;99.90
12374;DHT22;6251;51.762;8.660;2023-06-05T05:44:52;11.30;99.90
12374;DHT22;6251;51.762;8.660;2023-06-05T05:54:53;11.60;99.90
12374;DHT22;6251;51.762;8.660;2023-06-05T06:04:53;11.90;99.90
12374;DHT22;6251;51.762;8.660;2023-06-05T06:14:55;12.10;99.90
12374;DHT22;6251;51.762;8.660;2023-06-05T06:24:55;12.50;99.90
12374;DHT22;6251;51.762;8.660;2023-06-05T06:34:56;12.80;99.90
12374;DHT22;6251;51.762;8.660;2023-06-05T06:44:57;13.20;99.90
12374;DHT22;6251;51.762;8.660;2023-06-05T06:54:58;13.40;99.90
12374;DHT22;6251;51.762;8.660;2023-06-05T07:04:58;13.70;99.90
12374;DHT22;6251;51.762;8.660;2023-06-05T07:14:59;14.10;99.90
12374;DHT22;6251;51.762;8.660;2023-06-05T07:25:00;14.50;99.90
12374;DHT22;6251;51.762;8.660;2023-06-05T07:35:00;14.90;99.90
12374;DHT22;6251;51.762;8.660;2023-06-05T07:45:01;15.20;99.90
12374;DHT22;6251;51.762;8.660;2023-06-05T07:55:02;15.60;99.90
12374;DHT22;6251;51.762;8.660;2023-06-05T08:05:03;16.00;99.90
12374;DHT22;6251;51.762;8.660;2023-06-05T08:15:04;16.40;99.90
12374;DHT22;6251;51.762;8.660;2023-06-05T08:25:06;16.80;99.90
12374;DHT22;6251;51.762;8.660;2023-06-05T08:35:06;17.30;98.20
12374;DHT22;6251;51.762;8.660;2023-06-05T08:45:08;17.70;98.10
12374;DHT22;6251;51.762;8.660;2023-06-05T08:55:10;18.20;97.00
12374;DHT22;6251;51.762;8.660;2023-06-05T09:05:25;18.70;94.20
12374;DHT22;6251;51.762;8.660;2023-06-05T09:15:28;19.20;91.80
12374;DHT22;6251;51.762;8.660;2023-06-05T09:25:47;19.60;86.00
12374;DHT22;6251;51.762;8.660;2023-06-05T09:36:11;20.00;89.20
12374;DHT22;6251;51.762;8.660;2023-06-05T09:46:13;20.50;79.90
12374;DHT22;6251;51.762;8.660;2023-06-05T09:56:19;20.90;79.00
12374;DHT22;6251;51.762;8.660;2023-06-05T10:16:50;21.60;68.20
12374;DHT22;6251;51.762;8.660;2023-06-05T10:37:47;22.30;65.20
12374;DHT22;6251;51.762;8.660;2023-06-05T10:48:14;22.50;66.00
12374;DHT22;6251;51.762;8.660;2023-06-05T10:58:16;22.80;63.00
12374;DHT22;6251;51.762;8.660;2023-06-05T11:08:17;23.10;64.20
12374;DHT22;6251;51.762;8.660;2023-06-05T11:18:27;23.40;58.50
12374;DHT22;6251;51.762;8.660;2023-06-05T11:28:43;23.50;57.40
12374;DHT22;6251;51.762;8.660;2023-06-05T11:38:53;23.80;62.10
12374;DHT22;6251;51.762;8.660;2023-06-05T11:48:54;24.00;59.90
12374;DHT22;6251;51.762;8.660;2023-06-05T11:58:55;24.30;63.60
12374;DHT22;6251;51.762;8.660;2023-06-05T12:09:12;24.60;60.90
12374;DHT22;6251;51.762;8.660;2023-06-05T12:19:16;24.70;61.40
12374;DHT22;6251;51.762;8.660;2023-06-05T12:29:18;24.50;58.80
12374;DHT22;6251;51.762;8.660;2023-06-05T12:39:19;24.80;61.10
12374;DHT22;6251;51.762;8.660;2023-06-05T12:49:20;25.10;61.50
12374;DHT22;6251;51.762;8.660;2023-06-05T12:59:20;25.40;56.50
12374;DHT22;6251;51.762;8.660;2023-06-05T13:09:21;25.70;58.50
12374;DHT22;6251;51.762;8.660;2023-06-05T13:19:22;25.90;57.70
12374;DHT22;6251;51.762;8.660;2023-06-05T13:29:23;26.20;56.50
12374;DHT22;6251;51.762;8.660;2023-06-05T13:39:23;26.70;55.20
12374;DHT22;6251;51.762;8.660;2023-06-05T13:49:24;27.20;55.20
12374;DHT22;6251;51.762;8.660;2023-06-05T13:59:25;27.60;52.50
12374;DHT22;6251;51.762;8.660;2023-06-05T14:09:26;27.40;53.20
12374;DHT22;6251;51.762;8.660;2023-06-05T14:19:27;27.50;54.30
12374;DHT22;6251;51.762;8.660;2023-06-05T14:29:28;27.50;51.40
12374;DHT22;6251;51.762;8.660;2023-06-05T14:39:28;27.10;53.50
12374;DHT22;6251;51.762;8.660;2023-06-05T14:49:29;27.30;52.60
12374;DHT22;6251;51.762;8.660;2023-06-05T14:59:30;27.70;52.70
12374;DHT22;6251;51.762;8.660;2023-06-05T15:09:31;27.70;53.50
12374;DHT22;6251;51.762;8.660;2023-06-05T15:19:58;27.70;53.60
12374;DHT22;6251;51.762;8.660;2023-06-05T15:29:58;28.60;52.10
12374;DHT22;6251;51.762;8.660;2023-06-05T15:39:59;29.50;50.80
12374;DHT22;6251;51.762;8.660;2023-06-05T15:50:00;35.30;45.10
12374;DHT22;6251;51.762;8.660;2023-06-05T16:00:01;41.00;37.70
12374;DHT22;6251;51.762;8.660;2023-06-05T16:10:02;43.40;35.10
12374;DHT22;6251;51.762;8.660;2023-06-05T16:20:02;45.20;32.90
12374;DHT22;6251;51.762;8.660;2023-06-05T16:30:04;45.80;33.30
12374;DHT22;6251;51.762;8.660;2023-06-05T16:40:06;45.00;31.20
12374;DHT22;6251;51.762;8.660;2023-06-05T16:50:07;42.00;32.50
12374;DHT22;6251;51.762;8.660;2023-06-05T17:00:08;41.50;32.70
12374;DHT22;6251;51.762;8.660;2023-06-05T17:10:09;42.50;32.80
12374;DHT22;6251;51.762;8.660;2023-06-05T17:20:10;42.10;31.00
12374;DHT22;6251;51.762;8.660;2023-06-05T17:30:11;41.80;33.80
12374;DHT22;6251;51.762;8.660;2023-06-05T17:40:13;41.50;33.30
12374;DHT22;6251;51.762;8.660;2023-06-05T17:50:14;40.50;32.90
12374;DHT22;6251;51.762;8.660;2023-06-05T18:00:15;38.40;34.70
12374;DHT22;6251;51.762;8.660;2023-06-05T18:10:15;35.10;35.90
12374;DHT22;6251;51.762;8.660;2023-06-05T18:20:16;32.80;40.70
12374;DHT22;6251;51.762;8.660;2023-06-05T18:30:18;31.10;41.40
12374;DHT22;6251;51.762;8.660;2023-06-05T18:40:18;29.70;44.20
12374;DHT22;6251;51.762;8.660;2023-06-05T18:50:20;28.30;43.60
12374;DHT22;6251;51.762;8.660;2023-06-05T19:00:22;26.90;45.70
12374;DHT22;6251;51.762;8.660;2023-06-05T19:10:24;25.80;48.10
12374;DHT22;6251;51.762;8.660;2023-06-05T19:20:25;24.70;51.10
12374;DHT22;6251;51.762;8.660;2023-06-05T19:30:25;23.70;53.40
12374;DHT22;6251;51.762;8.660;2023-06-05T19:40:27;22.80;55.70
12374;DHT22;6251;51.762;8.660;2023-06-05T19:50:27;22.00;57.30
12374;DHT22;6251;51.762;8.660;2023-06-05T20:00:28;21.20;59.40
12374;DHT22;6251;51.762;8.660;2023-06-05T20:10:28;20.50;61.10
12374;DHT22;6251;51.762;8.660;2023-06-05T20:20:29;19.90;62.80
12374;DHT22;6251;51.762;8.660;2023-06-05T20:30:29;19.40;64.20
12374;DHT22;6251;51.762;8.660;2023-06-05T20:40:34;18.90;66.90
12374;DHT22;6251;51.762;8.660;2023-06-05T20:50:40;18.50;68.30
12374;DHT22;6251;51.762;8.660;2023-06-05T23:04:33;16.10;99.90
12374;DHT22;6251;51.762;8.660;2023-06-05T23:14:38;15.90;99.90
